Terminal Aerodrome Forecast
Issued by NWS Boston, MA

Home | Current Version | Previous Version | Text Only | Print | Product List | Glossary On
Versions: 1 2 3 4 5 6 7 8 9 10 11 12 13 14 15 16 17
000
FTUS41 KBOX 261727
TAFORH
TAF
KORH 261727Z 2618/2718 31010KT P6SM -RA SCT015 OVC040
     FM261900 32010G17KT P6SM -RA OVC020
     FM262200 33010KT P6SM OVC020
     FM270300 33005KT P6SM BKN045
     FM270600 32005KT P6SM BKN030
     FM271600 01006KT P6SM BKN025=

USA.gov is the U.S. government's official web portal to all federal, state and local government web resources and services.